Time;durP1;ratioP1;P1;durP2;ratioP2;P2;SDS_P1;SDS_P2;PMS_P1;PMS_P2;Temp;Humidity;BMP_temperature;BMP_pressure;BME280_temperature;BME280_humidity;BME280_pressure;Samples;Min_cycle;Max_cycle;Signal;HPM_P1;HPM_P2
2023/04/04 00:00:52;;;;;;;4.07;2.03;;;9.80;85.70;;;;;;5030149;28;20863;-73
2023/04/04 00:03:23;;;;;;;2.93;1.80;;;9.80;85.60;;;;;;5054354;28;20777;-73
2023/04/04 00:05:53;;;;;;;5.83;2.13;;;9.80;85.60;;;;;;5024041;28;20435;-72
2023/04/04 00:08:20;;;;;;;3.73;1.60;;;9.80;85.60;;;;;;5000552;28;20406;-73
2023/04/04 00:10:46;;;;;;;2.77;2.00;;;9.80;85.60;;;;;;5019005;28;20538;-73
2023/04/04 00:13:12;;;;;;;3.10;2.10;;;9.80;85.60;;;;;;5029663;28;20506;-73
2023/04/04 00:15:39;;;;;;;2.77;2.00;;;9.80;85.60;;;;;;5028928;28;20537;-73
2023/04/04 00:18:07;;;;;;;3.10;2.00;;;9.80;85.70;;;;;;5036517;28;20407;-73
2023/04/04 00:20:36;;;;;;;2.60;1.60;;;9.80;85.70;;;;;;5034899;28;20500;-73
2023/04/04 00:23:04;;;;;;;3.70;2.60;;;9.80;85.80;;;;;;5042879;28;21000;-73
2023/04/04 00:25:30;;;;;;;3.00;1.90;;;9.70;85.90;;;;;;5042686;28;20428;-73
2023/04/04 00:27:59;;;;;;;4.20;2.00;;;9.70;86.00;;;;;;5053846;28;20523;-73
2023/04/04 00:30:25;;;;;;;1.70;1.50;;;9.70;86.20;;;;;;5025190;28;20447;-73
2023/04/04 00:32:51;;;;;;;4.37;2.33;;;9.70;86.20;;;;;;5036097;28;20414;-72
2023/04/04 00:35:19;;;;;;;5.30;2.27;;;9.70;86.20;;;;;;5015625;28;20453;-73
2023/04/04 00:37:45;;;;;;;3.50;2.10;;;9.70;86.30;;;;;;5006029;28;20494;-73
2023/04/04 00:40:12;;;;;;;2.00;1.63;;;9.70;86.20;;;;;;5050110;28;20434;-73
2023/04/04 00:42:42;;;;;;;1.90;1.60;;;9.70;86.40;;;;;;5021402;28;20509;-73
2023/04/04 00:45:10;;;;;;;3.10;2.20;;;9.60;86.40;;;;;;5034729;28;20457;-73
2023/04/04 00:47:37;;;;;;;3.13;2.30;;;9.60;86.40;;;;;;5015922;28;20392;-73
2023/04/04 00:50:11;;;;;;;2.70;2.10;;;9.60;86.40;;;;;;5034265;28;20527;-73
2023/04/04 00:52:40;;;;;;;4.20;2.37;;;9.60;86.50;;;;;;5043644;28;20464;-73
2023/04/04 00:55:08;;;;;;;3.40;2.30;;;9.60;86.50;;;;;;5014213;28;20804;-73
2023/04/04 00:57:35;;;;;;;4.30;1.87;;;9.60;86.50;;;;;;5033072;28;20837;-72
2023/04/04 01:00:05;;;;;;;3.23;1.83;;;9.60;86.60;;;;;;4999476;28;20461;-73
2023/04/04 01:02:31;;;;;;;3.97;2.10;;;9.50;86.50;;;;;;5017055;28;20605;-73
2023/04/04 01:05:01;;;;;;;2.87;2.57;;;9.50;86.60;;;;;;5050799;28;20916;-72
2023/04/04 01:07:27;;;;;;;2.80;2.20;;;9.50;86.60;;;;;;5050166;28;20415;-73
2023/04/04 01:09:58;;;;;;;3.70;2.30;;;9.50;86.70;;;;;;5035205;28;20500;-73
2023/04/04 01:12:24;;;;;;;6.63;2.50;;;9.50;86.80;;;;;;5034514;28;20445;-73
2023/04/04 01:14:52;;;;;;;3.27;2.50;;;9.50;86.90;;;;;;5028376;28;20461;-72
2023/04/04 01:17:18;;;;;;;2.87;2.30;;;9.40;86.90;;;;;;5001745;28;20460;-73
2023/04/04 01:20:14;;;;;;;6.50;2.33;;;9.40;87.00;;;;;;5031775;28;20496;-72
2023/04/04 01:22:51;;;;;;;3.70;2.10;;;9.40;87.10;;;;;;5016460;28;20418;-73
2023/04/04 01:25:29;;;;;;;3.00;2.20;;;9.40;87.20;;;;;;5021976;28;20500;-72
2023/04/04 01:27:59;;;;;;;5.90;2.30;;;9.40;87.30;;;;;;5017846;28;20422;-73
2023/04/04 01:30:33;;;;;;;3.10;1.90;;;9.40;87.20;;;;;;5006983;28;20500;-73
2023/04/04 01:33:24;;;;;;;3.23;2.10;;;9.40;87.30;;;;;;5034712;28;20420;-73
2023/04/04 01:36:15;;;;;;;2.33;2.03;;;9.30;87.30;;;;;;4978713;28;20989;-72
2023/04/04 01:38:58;;;;;;;4.90;2.30;;;9.30;87.30;;;;;;5009838;28;20848;-73
2023/04/04 01:41:31;;;;;;;5.43;2.77;;;9.30;87.40;;;;;;5000405;28;20459;-73
2023/04/04 01:43:59;;;;;;;4.67;2.10;;;9.30;87.60;;;;;;5028185;28;20468;-73
2023/04/04 01:46:31;;;;;;;2.93;2.37;;;9.30;87.70;;;;;;5034549;28;20445;-72
2023/04/04 01:48:57;;;;;;;5.27;2.77;;;9.20;87.70;;;;;;5022110;28;20427;-72
2023/04/04 01:51:29;;;;;;;4.70;2.30;;;9.20;87.80;;;;;;5014839;28;20442;-73
2023/04/04 01:53:56;;;;;;;3.30;2.57;;;9.20;87.90;;;;;;5015545;28;20481;-73
2023/04/04 01:56:22;;;;;;;3.37;2.40;;;9.20;88.00;;;;;;5018169;28;20403;-72
2023/04/04 01:58:48;;;;;;;2.63;2.20;;;9.20;88.00;;;;;;5027483;28;20438;-72
2023/04/04 02:01:14;;;;;;;2.70;2.43;;;9.20;88.00;;;;;;5014548;28;20847;-72
2023/04/04 02:03:42;;;;;;;4.53;3.13;;;9.20;88.10;;;;;;4996945;28;20776;-72
2023/04/04 02:06:12;;;;;;;3.73;2.20;;;9.20;88.20;;;;;;5051059;28;20480;-73
2023/04/04 02:08:45;;;;;;;4.57;2.70;;;9.20;88.20;;;;;;5036246;28;20853;-73
2023/04/04 02:11:13;;;;;;;4.30;2.77;;;9.10;88.10;;;;;;5014209;28;20446;-73
2023/04/04 02:13:43;;;;;;;3.30;2.20;;;9.10;88.10;;;;;;5028293;28;20419;-72
2023/04/04 02:16:09;;;;;;;2.50;2.13;;;9.10;88.30;;;;;;5030346;28;20845;-73
2023/04/04 02:18:38;;;;;;;2.63;2.43;;;9.10;88.40;;;;;;4988077;28;20461;-73
2023/04/04 02:21:04;;;;;;;3.60;2.57;;;9.10;88.50;;;;;;5031699;28;20487;-74
2023/04/04 02:23:35;;;;;;;3.90;2.60;;;9.10;88.70;;;;;;5015457;28;20443;-74
2023/04/04 02:26:00;;;;;;;4.90;2.60;;;9.00;88.60;;;;;;5031869;28;20400;-74
2023/04/04 02:28:30;;;;;;;3.80;2.27;;;9.00;88.70;;;;;;5047199;28;20437;-74
2023/04/04 02:31:01;;;;;;;5.53;2.50;;;9.00;88.70;;;;;;5030477;28;20969;-74
2023/04/04 02:33:30;;;;;;;3.83;2.37;;;9.00;88.80;;;;;;5012255;28;20419;-74
2023/04/04 02:35:59;;;;;;;4.40;2.17;;;9.00;88.80;;;;;;5013453;28;20480;-74
2023/04/04 02:38:27;;;;;;;3.57;2.67;;;9.00;89.00;;;;;;5045755;28;20454;-74
2023/04/04 02:40:56;;;;;;;4.00;2.63;;;9.00;89.00;;;;;;4998552;28;20553;-74
2023/04/04 02:43:22;;;;;;;3.60;2.13;;;9.00;89.00;;;;;;5020908;28;20514;-74
2023/04/04 02:45:52;;;;;;;3.70;2.30;;;9.00;89.00;;;;;;5030535;28;20792;-74
2023/04/04 02:48:27;;;;;;;3.30;2.30;;;8.90;89.00;;;;;;5017830;28;20425;-74
2023/04/04 02:51:00;;;;;;;4.53;2.57;;;8.90;89.10;;;;;;4982942;28;20474;-74
2023/04/04 02:53:28;;;;;;;3.90;2.27;;;8.90;89.00;;;;;;5012325;28;20482;-74
2023/04/04 02:56:04;;;;;;;4.30;2.80;;;8.90;89.10;;;;;;4982405;28;20839;-74
2023/04/04 02:58:31;;;;;;;4.00;2.47;;;8.90;89.20;;;;;;5024545;28;20434;-74
2023/04/04 03:00:59;;;;;;;3.60;2.60;;;8.90;89.20;;;;;;5044017;28;20442;-74
2023/04/04 03:03:30;;;;;;;2.80;2.40;;;8.80;89.20;;;;;;5023773;28;20423;-74
2023/04/04 03:05:59;;;;;;;4.43;2.63;;;8.80;89.10;;;;;;5018037;28;20406;-74
2023/04/04 03:08:26;;;;;;;3.70;3.23;;;8.80;89.10;;;;;;5029967;28;20430;-74
2023/04/04 03:10:58;;;;;;;7.53;2.50;;;8.80;89.20;;;;;;5041569;28;20499;-74
2023/04/04 03:13:26;;;;;;;3.47;2.73;;;8.80;89.30;;;;;;5006072;28;20441;-74
2023/04/04 03:16:02;;;;;;;3.57;2.40;;;8.80;89.20;;;;;;5037454;28;21010;-74
2023/04/04 03:18:30;;;;;;;4.30;2.30;;;8.80;89.30;;;;;;5024195;28;20414;-74
2023/04/04 03:20:56;;;;;;;3.77;2.63;;;8.70;89.20;;;;;;5053839;28;20980;-74
2023/04/04 03:23:24;;;;;;;3.63;2.30;;;8.70;89.20;;;;;;5004844;28;20439;-74
2023/04/04 03:25:50;;;;;;;3.00;2.60;;;8.70;89.20;;;;;;5035199;28;20827;-74
2023/04/04 03:28:24;;;;;;;3.57;2.80;;;8.70;89.30;;;;;;5031954;28;20450;-74
2023/04/04 03:30:54;;;;;;;3.30;2.50;;;8.70;89.40;;;;;;5018513;28;20510;-74
2023/04/04 03:33:21;;;;;;;3.13;2.83;;;8.70;89.40;;;;;;5042097;28;20431;-74
2023/04/04 03:35:49;;;;;;;3.23;2.40;;;8.60;89.50;;;;;;5039851;28;20533;-74
2023/04/04 03:38:15;;;;;;;4.17;2.63;;;8.70;89.60;;;;;;4997798;28;20531;-74
2023/04/04 03:40:42;;;;;;;4.93;2.60;;;8.60;89.60;;;;;;5009907;28;20485;-74
2023/04/04 03:43:11;;;;;;;3.80;2.57;;;8.60;89.70;;;;;;5030482;28;20446;-74
2023/04/04 03:45:38;;;;;;;5.33;2.60;;;8.60;89.60;;;;;;5037234;28;20406;-74
2023/04/04 03:48:06;;;;;;;4.07;3.23;;;8.60;89.60;;;;;;5023388;28;20484;-74
2023/04/04 03:50:36;;;;;;;6.20;2.63;;;8.60;89.60;;;;;;4998691;28;21024;-74
2023/04/04 03:53:02;;;;;;;6.50;3.20;;;8.60;89.70;;;;;;5026204;28;20423;-74
2023/04/04 03:55:28;;;;;;;2.97;2.60;;;8.60;89.80;;;;;;5027510;28;20454;-74
2023/04/04 03:57:58;;;;;;;3.70;2.50;;;8.60;89.80;;;;;;5029284;28;20822;-74
2023/04/04 04:00:26;;;;;;;3.20;2.47;;;8.60;89.90;;;;;;5017084;28;20451;-74
2023/04/04 04:02:55;;;;;;;4.80;2.80;;;8.50;89.90;;;;;;5040878;28;20464;-74
2023/04/04 04:05:21;;;;;;;3.27;2.37;;;8.50;89.90;;;;;;5054117;28;20433;-74
2023/04/04 04:07:51;;;;;;;4.67;2.67;;;8.50;89.90;;;;;;5047938;28;20805;-74
2023/04/04 04:10:22;;;;;;;4.67;2.40;;;8.50;90.00;;;;;;5000385;28;20757;-74
2023/04/04 04:12:50;;;;;;;3.53;2.33;;;8.50;90.00;;;;;;5017524;28;20443;-74
2023/04/04 04:15:16;;;;;;;3.07;2.63;;;8.40;90.00;;;;;;4980031;28;20754;-74
2023/04/04 04:17:46;;;;;;;4.40;3.10;;;8.40;89.90;;;;;;5006881;28;20428;-74
2023/04/04 04:20:16;;;;;;;4.97;2.60;;;8.40;89.90;;;;;;5016684;28;21007;-74
2023/04/04 04:22:46;;;;;;;3.50;2.37;;;8.40;90.00;;;;;;5017250;28;20490;-74
2023/04/04 04:25:16;;;;;;;3.70;2.70;;;8.40;90.00;;;;;;5019551;28;20533;-74
2023/04/04 04:27:49;;;;;;;3.17;2.87;;;8.40;89.90;;;;;;5017824;28;20517;-74
2023/04/04 04:30:22;;;;;;;5.23;2.43;;;8.40;89.90;;;;;;5015189;28;20459;-74
2023/04/04 04:32:49;;;;;;;4.80;2.67;;;8.30;89.90;;;;;;5005070;28;20454;-74
2023/04/04 04:35:17;;;;;;;3.80;2.50;;;8.30;89.90;;;;;;5052680;28;21009;-74
2023/04/04 04:37:46;;;;;;;2.47;2.23;;;8.30;89.90;;;;;;5008848;28;20795;-74
2023/04/04 04:40:15;;;;;;;3.50;2.40;;;8.30;90.00;;;;;;5010804;28;20454;-74
2023/04/04 04:42:46;;;;;;;5.30;2.90;;;8.30;90.00;;;;;;5012885;28;20422;-74
2023/04/04 04:45:18;;;;;;;3.10;2.30;;;8.30;90.00;;;;;;5036127;28;20415;-74
2023/04/04 04:47:52;;;;;;;2.83;2.30;;;8.30;90.00;;;;;;5052289;28;20425;-72
2023/04/04 04:50:19;;;;;;;3.27;2.33;;;8.30;90.00;;;;;;5035438;28;20444;-72
2023/04/04 04:52:51;;;;;;;5.43;3.63;;;8.20;90.00;;;;;;5042810;28;20503;-73
2023/04/04 04:55:19;;;;;;;4.03;2.80;;;8.20;90.00;;;;;;5040480;28;20443;-70
2023/04/04 04:58:05;;;;;;;4.43;2.77;;;8.20;90.00;;;;;;5033310;28;20426;-70
2023/04/04 05:00:32;;;;;;;3.97;2.50;;;8.20;90.00;;;;;;5014214;28;20961;-71
2023/04/04 05:03:00;;;;;;;5.93;2.83;;;8.20;90.00;;;;;;5023375;28;20445;-71
2023/04/04 05:05:37;;;;;;;3.03;2.70;;;8.20;90.00;;;;;;5035669;28;20459;-71
2023/04/04 05:08:07;;;;;;;5.67;2.50;;;8.10;90.00;;;;;;5016100;28;20542;-71
2023/04/04 05:10:36;;;;;;;3.73;2.33;;;8.10;90.00;;;;;;4998160;28;20454;-71
2023/04/04 05:13:05;;;;;;;3.30;2.30;;;8.10;90.00;;;;;;5040712;28;20489;-71
2023/04/04 05:15:39;;;;;;;4.43;2.77;;;8.10;90.00;;;;;;5014679;28;20481;-71
2023/04/04 05:18:07;;;;;;;4.03;2.60;;;8.10;90.00;;;;;;5016917;28;20749;-71
2023/04/04 05:20:36;;;;;;;3.87;2.50;;;8.10;90.00;;;;;;5015598;28;20541;-71
2023/04/04 05:23:06;;;;;;;3.50;2.77;;;8.10;90.10;;;;;;5040622;28;20809;-71
2023/04/04 05:25:37;;;;;;;3.00;2.50;;;8.00;90.00;;;;;;5034847;28;20459;-71
2023/04/04 05:28:05;;;;;;;4.00;2.60;;;8.00;90.10;;;;;;5013622;28;20473;-71
2023/04/04 05:30:34;;;;;;;2.97;2.70;;;8.00;90.10;;;;;;5033942;28;20823;-71
2023/04/04 05:33:16;;;;;;;3.80;2.57;;;8.00;90.10;;;;;;5010074;28;20431;-71
2023/04/04 05:35:48;;;;;;;4.33;3.03;;;8.00;90.10;;;;;;5023117;28;20503;-71
2023/04/04 05:38:19;;;;;;;4.33;3.23;;;8.00;90.20;;;;;;5017517;28;20422;-71
2023/04/04 05:40:48;;;;;;;3.20;2.87;;;8.00;90.20;;;;;;5006674;28;20456;-71
2023/04/04 05:43:15;;;;;;;4.33;2.73;;;8.00;90.20;;;;;;5024233;28;20414;-71
2023/04/04 05:45:57;;;;;;;5.83;3.53;;;7.90;90.20;;;;;;5041142;28;20419;-71
2023/04/04 05:48:27;;;;;;;3.50;2.77;;;7.90;90.20;;;;;;5014129;28;21003;-71
2023/04/04 05:50:55;;;;;;;3.63;2.50;;;7.90;90.20;;;;;;5014274;28;20431;-72
2023/04/04 05:53:34;;;;;;;4.60;2.90;;;7.90;90.20;;;;;;5038016;28;20516;-71
2023/04/04 05:56:07;;;;;;;3.13;2.70;;;7.90;90.20;;;;;;5026523;28;20478;-71
2023/04/04 05:58:36;;;;;;;3.50;2.60;;;7.90;90.30;;;;;;4998728;28;20426;-71
2023/04/04 06:01:10;;;;;;;4.13;3.33;;;7.90;90.30;;;;;;5010607;28;20442;-71
2023/04/04 06:03:38;;;;;;;3.50;2.80;;;7.90;90.30;;;;;;5016748;28;20423;-71
2023/04/04 06:06:11;;;;;;;5.33;3.13;;;7.90;90.30;;;;;;5013679;28;20442;-71
2023/04/04 06:08:39;;;;;;;4.30;3.33;;;7.90;90.40;;;;;;5031402;28;20817;-71
2023/04/04 06:11:10;;;;;;;4.63;3.00;;;7.80;90.30;;;;;;5015692;28;20447;-72
2023/04/04 06:13:36;;;;;;;7.50;2.83;;;7.80;90.40;;;;;;5028065;28;20433;-72
2023/04/04 06:16:07;;;;;;;5.50;3.20;;;7.80;90.40;;;;;;4999805;28;20883;-72
2023/04/04 06:18:33;;;;;;;4.80;3.17;;;7.80;90.40;;;;;;4999409;28;20450;-72
2023/04/04 06:21:01;;;;;;;3.90;2.87;;;7.80;90.40;;;;;;4983965;28;20438;-71
2023/04/04 06:23:29;;;;;;;4.20;3.00;;;7.80;90.50;;;;;;5032786;28;20438;-72
2023/04/04 06:25:56;;;;;;;6.80;3.60;;;7.80;90.50;;;;;;4978095;28;20458;-72
2023/04/04 06:28:23;;;;;;;4.07;2.73;;;7.80;90.50;;;;;;5011104;28;20775;-72
2023/04/04 06:30:49;;;;;;;3.30;2.80;;;7.80;90.50;;;;;;4997609;28;20906;-72
2023/04/04 06:33:25;;;;;;;4.77;3.33;;;7.80;90.60;;;;;;5014085;28;20394;-72
2023/04/04 06:35:51;;;;;;;5.57;3.57;;;7.80;90.70;;;;;;5030352;28;20446;-72
2023/04/04 06:38:18;;;;;;;4.00;3.40;;;7.80;90.70;;;;;;5030254;28;20468;-73
2023/04/04 06:40:45;;;;;;;4.13;2.90;;;7.70;90.70;;;;;;4993561;28;20815;-73
2023/04/04 06:43:16;;;;;;;7.63;3.80;;;7.80;90.90;;;;;;4978280;28;20439;-72
2023/04/04 06:45:45;;;;;;;4.07;3.30;;;7.80;90.90;;;;;;5001420;28;20469;-72
2023/04/04 06:48:13;;;;;;;5.73;3.30;;;7.80;90.90;;;;;;4997660;28;20411;-73
2023/04/04 06:50:42;;;;;;;4.40;3.20;;;7.70;91.00;;;;;;5030213;28;20435;-73
2023/04/04 06:53:13;;;;;;;10.13;3.40;;;7.70;91.00;;;;;;5013159;28;20537;-73
2023/04/04 06:55:43;;;;;;;5.43;3.60;;;7.70;91.00;;;;;;4997918;28;20891;-72
2023/04/04 06:58:13;;;;;;;6.90;4.17;;;7.70;91.10;;;;;;5014322;28;20416;-72
2023/04/04 07:00:41;;;;;;;6.17;3.30;;;7.70;91.10;;;;;;4997186;28;20963;-72
2023/04/04 07:03:07;;;;;;;7.90;3.70;;;7.70;91.10;;;;;;4997581;28;20430;-73
2023/04/04 07:05:38;;;;;;;8.87;4.33;;;7.80;91.20;;;;;;5031414;28;20399;-72
2023/04/04 07:08:05;;;;;;;5.43;3.70;;;7.70;91.20;;;;;;5014087;28;20770;-72
2023/04/04 07:10:33;;;;;;;4.00;3.60;;;7.70;91.30;;;;;;5031122;28;20438;-72
2023/04/04 07:13:02;;;;;;;4.87;3.50;;;7.70;91.30;;;;;;5013153;28;20474;-72
2023/04/04 07:15:30;;;;;;;4.63;3.53;;;7.70;91.30;;;;;;5013825;28;20446;-73
2023/04/04 07:17:56;;;;;;;6.57;3.80;;;7.80;91.40;;;;;;5013862;28;20542;-72
2023/04/04 07:20:25;;;;;;;4.90;3.77;;;7.70;91.40;;;;;;5013458;28;20959;-72
2023/04/04 07:22:56;;;;;;;5.43;3.50;;;7.70;91.40;;;;;;5030943;28;20448;-73
2023/04/04 07:25:24;;;;;;;4.83;3.57;;;7.70;91.40;;;;;;4997828;28;20797;-72
2023/04/04 07:27:53;;;;;;;3.07;2.70;;;7.70;91.40;;;;;;5030358;28;20472;-72
2023/04/04 07:30:25;;;;;;;4.37;3.20;;;7.80;91.50;;;;;;5013044;28;20451;-73
2023/04/04 07:33:01;;;;;;;5.77;3.03;;;7.70;91.50;;;;;;5013130;28;20832;-72
2023/04/04 07:35:27;;;;;;;5.23;3.33;;;7.70;91.50;;;;;;5016028;28;20445;-72
2023/04/04 07:37:53;;;;;;;4.70;3.60;;;7.70;91.50;;;;;;5017074;28;20445;-72
2023/04/04 07:40:20;;;;;;;6.20;3.40;;;7.70;91.50;;;;;;5017278;28;20474;-73
2023/04/04 07:42:53;;;;;;;4.03;3.40;;;7.70;91.50;;;;;;5017163;28;20415;-72
2023/04/04 07:45:20;;;;;;;5.23;3.30;;;7.70;91.50;;;;;;5017048;28;20500;-72
2023/04/04 07:47:48;;;;;;;5.20;3.13;;;7.80;91.50;;;;;;5000819;28;20436;-73
2023/04/04 07:50:19;;;;;;;3.60;2.70;;;7.70;91.50;;;;;;4984334;28;20852;-72
2023/04/04 07:52:54;;;;;;;4.80;3.30;;;7.70;91.50;;;;;;5016214;28;20423;-72
2023/04/04 07:55:23;;;;;;;7.33;3.30;;;7.70;91.50;;;;;;5033214;28;20479;-72
2023/04/04 07:57:51;;;;;;;5.13;3.00;;;7.80;91.60;;;;;;5016444;28;20518;-72
2023/04/04 08:00:20;;;;;;;3.07;2.77;;;7.80;91.60;;;;;;5034208;28;20948;-72
2023/04/04 08:02:57;;;;;;;3.20;2.57;;;7.80;91.70;;;;;;5016657;28;20399;-73
2023/04/04 08:05:24;;;;;;;4.87;3.00;;;7.80;91.60;;;;;;5000512;28;20475;-72
2023/04/04 08:07:52;;;;;;;3.70;2.70;;;7.80;91.60;;;;;;5000161;28;20909;-72
2023/04/04 08:10:20;;;;;;;6.60;2.90;;;7.80;91.60;;;;;;5032800;28;20454;-72
2023/04/04 08:12:49;;;;;;;3.50;2.47;;;7.80;91.50;;;;;;4996047;28;20470;-72
2023/04/04 08:15:17;;;;;;;4.57;2.43;;;7.80;91.40;;;;;;4980623;28;20808;-73
2023/04/04 08:17:46;;;;;;;4.30;3.07;;;7.80;91.30;;;;;;4997082;28;20782;-73
2023/04/04 08:20:17;;;;;;;5.30;3.17;;;7.80;91.30;;;;;;4997036;28;20442;-72
2023/04/04 08:22:43;;;;;;;3.47;2.40;;;7.80;91.30;;;;;;4996573;28;20973;-73
2023/04/04 08:25:10;;;;;;;3.00;2.30;;;7.80;91.30;;;;;;4980443;28;20428;-73
2023/04/04 08:27:45;;;;;;;4.33;2.40;;;7.80;91.30;;;;;;4997492;28;20935;-73
2023/04/04 08:30:16;;;;;;;2.77;2.47;;;7.90;91.20;;;;;;5010813;28;20463;-73
2023/04/04 08:32:46;;;;;;;2.53;2.33;;;7.90;91.10;;;;;;5016048;28;20483;-73
2023/04/04 08:35:12;;;;;;;4.03;1.97;;;7.90;91.00;;;;;;5016063;28;20848;-73
2023/04/04 08:37:44;;;;;;;5.00;2.30;;;7.90;90.90;;;;;;5033618;28;20411;-72
2023/04/04 08:40:18;;;;;;;3.10;2.37;;;7.90;90.80;;;;;;5031755;28;20457;-72
2023/04/04 08:42:45;;;;;;;3.70;2.63;;;7.90;90.80;;;;;;4999731;28;20434;-73
2023/04/04 08:45:15;;;;;;;2.97;2.07;;;7.90;90.60;;;;;;5015720;28;20822;-73
2023/04/04 08:47:43;;;;;;;2.00;1.80;;;7.90;90.60;;;;;;5015876;28;20465;-73
2023/04/04 08:50:09;;;;;;;3.17;1.83;;;7.90;90.50;;;;;;5033396;28;20961;-73
2023/04/04 08:52:36;;;;;;;4.40;2.43;;;7.90;90.40;;;;;;5033298;28;20457;-72
2023/04/04 08:55:11;;;;;;;3.87;1.73;;;7.90;90.20;;;;;;5015708;28;20979;-72
2023/04/04 08:57:37;;;;;;;2.03;1.70;;;8.00;90.10;;;;;;5020933;28;20429;-72
2023/04/04 09:00:06;;;;;;;3.00;2.10;;;8.00;90.20;;;;;;5005332;28;20450;-72
2023/04/04 09:02:38;;;;;;;2.40;2.00;;;8.00;90.10;;;;;;5033603;28;20408;-73
2023/04/04 09:05:09;;;;;;;4.70;1.90;;;8.00;90.10;;;;;;4999591;28;20851;-72
2023/04/04 09:07:36;;;;;;;4.30;2.17;;;8.00;90.20;;;;;;4998792;28;20438;-72
2023/04/04 09:10:02;;;;;;;2.33;1.83;;;8.10;90.30;;;;;;5033165;28;20444;-72
2023/04/04 09:12:36;;;;;;;4.20;1.90;;;8.10;90.10;;;;;;4999528;28;20485;-72
2023/04/04 09:15:08;;;;;;;3.20;1.97;;;8.10;90.00;;;;;;5011885;28;20459;-72
2023/04/04 09:17:36;;;;;;;3.90;1.87;;;8.20;90.00;;;;;;5011998;28;20421;-72
2023/04/04 09:20:03;;;;;;;3.43;2.30;;;8.20;90.00;;;;;;5013238;28;20451;-72
2023/04/04 09:22:30;;;;;;;2.77;2.30;;;8.20;89.90;;;;;;5012067;28;20465;-72
2023/04/04 09:24:57;;;;;;;2.83;2.00;;;8.20;89.90;;;;;;4996110;28;21036;-72
2023/04/04 09:27:23;;;;;;;2.47;1.90;;;8.30;89.80;;;;;;5012873;28;20397;-72
2023/04/04 09:29:51;;;;;;;4.17;2.03;;;8.30;90.10;;;;;;5026344;28;20451;-72
2023/04/04 09:32:21;;;;;;;3.13;1.70;;;8.30;89.40;;;;;;5035240;28;20418;-72
2023/04/04 09:34:50;;;;;;;3.30;2.23;;;8.30;89.20;;;;;;5019058;28;20529;-72
2023/04/04 09:37:18;;;;;;;4.20;2.17;;;8.40;89.20;;;;;;5052281;28;20434;-72
2023/04/04 09:39:47;;;;;;;2.30;2.10;;;8.40;89.20;;;;;;5018432;28;20426;-72
2023/04/04 09:42:14;;;;;;;4.10;2.17;;;8.40;89.60;;;;;;5034379;28;20421;-72
2023/04/04 09:44:40;;;;;;;3.07;1.83;;;8.50;90.00;;;;;;5052494;28;20399;-72
2023/04/04 09:47:26;;;;;;;4.23;2.23;;;8.50;90.00;;;;;;5052460;28;20736;-72
2023/04/04 09:49:57;;;;;;;3.50;2.23;;;8.50;90.00;;;;;;5018051;28;20461;-72
2023/04/04 09:52:23;;;;;;;2.40;2.00;;;8.60;90.30;;;;;;5034293;28;20764;-72
2023/04/04 09:55:06;;;;;;;2.20;1.80;;;8.60;90.40;;;;;;5018599;28;20459;-72
2023/04/04 09:57:36;;;;;;;3.47;2.17;;;8.60;90.50;;;;;;5033875;28;20502;-72
2023/04/04 10:00:08;;;;;;;6.57;3.00;;;8.60;90.50;;;;;;5021547;28;20522;-72
2023/04/04 10:02:40;;;;;;;3.80;1.80;;;8.70;90.60;;;;;;5014253;28;20450;-72
2023/04/04 10:05:10;;;;;;;1.67;1.57;;;8.70;90.60;;;;;;5014366;28;20493;-72
2023/04/04 10:07:41;;;;;;;2.60;2.03;;;8.80;90.70;;;;;;5014602;28;20457;-72
2023/04/04 10:10:10;;;;;;;2.60;2.17;;;8.80;90.60;;;;;;5014386;28;20518;-72
2023/04/04 10:12:40;;;;;;;2.57;2.30;;;8.80;90.50;;;;;;5031659;28;20435;-72
2023/04/04 10:15:07;;;;;;;3.50;2.00;;;8.80;90.50;;;;;;4997471;28;21044;-72
2023/04/04 10:17:38;;;;;;;3.50;2.40;;;8.80;90.40;;;;;;4998008;28;20450;-72
2023/04/04 10:20:08;;;;;;;2.20;1.77;;;8.90;90.50;;;;;;5014117;28;20467;-72
2023/04/04 10:22:41;;;;;;;4.93;2.23;;;8.90;90.60;;;;;;5031784;28;20828;-72
2023/04/04 10:25:09;;;;;;;3.33;2.30;;;8.90;90.50;;;;;;5048639;22;20502;-79
2023/04/04 10:27:37;;;;;;;3.67;1.87;;;9.00;90.40;;;;;;5013884;28;20810;-79
2023/04/04 10:30:06;;;;;;;3.33;1.87;;;9.00;90.30;;;;;;4993737;28;20490;-79
2023/04/04 10:33:05;;;;;;;3.33;2.37;;;9.00;90.10;;;;;;5017604;28;20424;-79
2023/04/04 10:35:33;;;;;;;2.63;2.00;;;9.00;90.20;;;;;;5000917;28;20498;-79
2023/04/04 10:38:04;;;;;;;5.03;2.20;;;9.10;90.20;;;;;;5017204;28;20439;-79
2023/04/04 10:40:34;;;;;;;3.17;2.00;;;9.10;90.00;;;;;;5000490;28;20455;-79
2023/04/04 10:43:03;;;;;;;3.37;1.87;;;9.10;89.80;;;;;;5000888;28;20485;-79
2023/04/04 10:45:31;;;;;;;3.00;1.97;;;9.20;89.60;;;;;;5000928;28;20524;-79
2023/04/04 10:48:03;;;;;;;4.60;1.90;;;9.20;89.10;;;;;;5018106;28;20504;-80
2023/04/04 10:50:32;;;;;;;3.93;2.33;;;9.20;89.00;;;;;;5016984;28;20434;-79
2023/04/04 10:53:00;;;;;;;2.40;2.20;;;9.20;89.10;;;;;;5000273;28;20899;-79
2023/04/04 10:55:35;;;;;;;2.97;2.07;;;9.30;88.80;;;;;;5034128;28;20461;-79
2023/04/04 10:58:04;;;;;;;3.30;2.10;;;9.30;88.60;;;;;;5017018;28;20509;-79
2023/04/04 11:00:47;;;;;;;3.10;1.97;;;9.40;88.90;;;;;;5017044;28;20525;-79
2023/04/04 11:03:16;;;;;;;2.43;1.97;;;9.40;89.00;;;;;;5034265;28;20813;-79
2023/04/04 11:05:49;;;;;;;3.30;2.10;;;9.40;89.10;;;;;;5033205;28;20451;-79
2023/04/04 11:08:23;;;;;;;4.10;2.10;;;9.50;89.00;;;;;;5033379;28;20411;-80
2023/04/04 11:10:56;;;;;;;3.20;2.00;;;9.50;90.00;;;;;;5038069;28;20447;-79
2023/04/04 11:13:34;;;;;;;2.80;2.10;;;9.50;89.20;;;;;;5037589;28;20477;-79
2023/04/04 11:16:06;;;;;;;2.07;1.87;;;9.60;89.20;;;;;;5004162;28;20466;-79
2023/04/04 11:18:44;;;;;;;3.97;2.00;;;9.60;89.80;;;;;;5020831;28;20896;-79
2023/04/04 11:21:18;;;;;;;3.10;2.40;;;9.60;90.10;;;;;;5020822;28;20554;-79
2023/04/04 11:23:46;;;;;;;3.23;2.30;;;9.70;90.00;;;;;;5036903;28;20437;-79
2023/04/04 11:26:15;;;;;;;3.27;2.00;;;9.70;88.90;;;;;;5037447;28;20407;-79
2023/04/04 11:28:45;;;;;;;2.20;1.77;;;9.70;88.40;;;;;;5022146;28;20431;-79
2023/04/04 11:31:15;;;;;;;3.40;1.97;;;9.80;89.20;;;;;;5023906;28;20752;-79
2023/04/04 11:34:03;;;;;;;2.50;1.90;;;9.80;89.30;;;;;;5040124;28;20454;-79
2023/04/04 11:36:38;;;;;;;3.33;2.53;;;9.80;89.60;;;;;;5007586;28;20471;-80
2023/04/04 11:39:11;;;;;;;6.27;2.50;;;9.90;89.60;;;;;;5017238;28;20412;-79
2023/04/04 11:41:53;;;;;;;3.10;2.10;;;9.90;89.20;;;;;;5000621;28;20431;-79
2023/04/04 11:44:21;;;;;;;2.23;1.87;;;9.90;89.70;;;;;;5033804;28;20422;-79
2023/04/04 11:47:08;;;;;;;3.37;2.03;;;10.00;88.30;;;;;;5017091;28;20797;-78
2023/04/04 11:49:38;;;;;;;2.77;1.87;;;10.00;88.50;;;;;;5016883;28;20440;-79
2023/04/04 11:52:16;;;;;;;3.80;2.33;;;10.00;88.80;;;;;;5016729;28;20478;-79
2023/04/04 11:54:48;;;;;;;3.67;2.03;;;10.10;88.70;;;;;;5016802;28;20467;-79
2023/04/04 11:57:19;;;;;;;4.63;2.20;;;10.10;88.60;;;;;;5016717;28;20419;-79
2023/04/04 11:59:51;;;;;;;2.80;1.90;;;10.10;88.80;;;;;;5037003;28;20776;-79
2023/04/04 12:02:30;;;;;;;5.07;1.90;;;10.20;88.70;;;;;;5039559;28;20500;-78
2023/04/04 12:04:59;;;;;;;2.60;1.53;;;10.20;88.60;;;;;;5057516;28;20482;-79
2023/04/04 12:07:27;;;;;;;3.00;1.80;;;10.20;88.60;;;;;;5057005;28;20442;-79
2023/04/04 12:09:56;;;;;;;2.63;1.87;;;10.30;88.50;;;;;;5057117;28;20422;-79
2023/04/04 12:12:27;;;;;;;3.17;1.73;;;10.30;88.30;;;;;;5023428;28;20422;-79
2023/04/04 12:14:55;;;;;;;3.53;1.80;;;10.30;88.40;;;;;;5055877;28;20489;-79
2023/04/04 12:17:21;;;;;;;5.00;2.17;;;10.40;88.20;;;;;;5038792;28;20960;-78
2023/04/04 12:19:47;;;;;;;2.90;1.90;;;10.40;88.10;;;;;;5038742;28;20466;-79
2023/04/04 12:22:19;;;;;;;2.20;1.50;;;10.50;88.10;;;;;;5039372;28;20406;-79
2023/04/04 12:24:47;;;;;;;2.60;1.60;;;10.50;87.50;;;;;;5039033;28;20439;-78
2023/04/04 12:27:13;;;;;;;2.70;1.93;;;10.50;87.20;;;;;;5055699;28;20611;-79
2023/04/04 12:29:40;;;;;;;3.03;2.23;;;10.50;87.00;;;;;;5047386;28;20438;-79
2023/04/04 12:32:09;;;;;;;5.73;2.07;;;10.60;87.10;;;;;;5036507;28;20775;-78
2023/04/04 12:34:42;;;;;;;2.07;1.70;;;10.60;86.90;;;;;;5019449;28;20934;-79
2023/04/04 12:37:10;;;;;;;2.73;2.20;;;10.60;86.30;;;;;;5052219;28;20543;-79
2023/04/04 12:39:48;;;;;;;3.03;2.00;;;10.70;86.70;;;;;;5039366;28;20502;-78
2023/04/04 12:42:23;;;;;;;2.53;2.10;;;10.70;86.90;;;;;;5038877;28;20434;-78
2023/04/04 12:44:53;;;;;;;3.57;2.30;;;10.70;86.60;;;;;;5039056;28;20879;-79
2023/04/04 12:47:23;;;;;;;3.37;2.20;;;10.80;86.50;;;;;;5039299;28;20443;-79
2023/04/04 12:49:58;;;;;;;2.10;1.80;;;10.80;86.40;;;;;;5023166;28;20415;-79
2023/04/04 12:52:31;;;;;;;3.13;2.10;;;10.80;86.00;;;;;;5056181;28;20439;-78
2023/04/04 12:55:01;;;;;;;5.77;2.40;;;10.80;85.80;;;;;;5022314;28;20808;-78
2023/04/04 12:57:33;;;;;;;3.53;2.03;;;10.80;86.00;;;;;;5038855;28;20440;-79
2023/04/04 13:00:05;;;;;;;2.60;1.87;;;10.90;86.10;;;;;;5038734;28;20494;-79
2023/04/04 13:02:34;;;;;;;4.27;2.20;;;10.90;86.00;;;;;;5056050;28;20395;-78
2023/04/04 13:05:02;;;;;;;3.77;2.20;;;10.90;86.00;;;;;;5038340;28;20453;-79
2023/04/04 13:07:42;;;;;;;4.93;1.87;;;10.90;86.00;;;;;;5020015;28;20431;-79
2023/04/04 13:10:10;;;;;;;4.53;2.07;;;11.00;86.00;;;;;;5002459;28;20456;-79